createdAt,value
2022-09-10T00:02:02.143Z,54.97
2022-09-10T00:07:05.907Z,54.71
2022-09-10T00:12:10.509Z,54.74
2022-09-10T00:17:14.777Z,54.74
2022-09-10T00:22:18.300Z,54.84
2022-09-10T00:27:21.806Z,54.83
2022-09-10T00:32:25.436Z,54.76
2022-09-10T00:37:29.056Z,54.84
2022-09-10T00:42:32.976Z,54.82
2022-09-10T00:47:38.246Z,54.90
2022-09-10T00:52:42.426Z,54.81
2022-09-10T00:57:47.236Z,54.68
2022-09-10T01:02:51.226Z,54.86
2022-09-10T01:07:56.657Z,54.80
2022-09-10T01:13:19.357Z,54.96
2022-09-10T01:18:32.201Z,54.86
2022-09-10T01:23:52.715Z,54.84
2022-09-10T01:29:00.834Z,54.86
2022-09-10T01:34:05.682Z,54.93
2022-09-10T01:39:09.187Z,54.99
2022-09-10T01:44:27.036Z,54.86
2022-09-10T01:49:36.721Z,54.80
2022-09-10T01:54:46.767Z,54.80
2022-09-10T01:59:55.647Z,54.93
2022-09-10T02:05:00.576Z,54.98
2022-09-10T02:10:05.600Z,54.90
2022-09-10T02:15:11.427Z,55.10
2022-09-10T02:20:16.706Z,54.88
2022-09-10T02:25:24.150Z,55.01
2022-09-10T02:30:28.067Z,54.89
2022-09-10T02:35:31.786Z,55.12
2022-09-10T02:40:35.300Z,55.12
2022-09-10T02:45:39.738Z,55.03
2022-09-10T02:50:45.200Z,54.96
2022-09-10T02:55:49.025Z,54.93
2022-09-10T03:00:52.826Z,54.88
2022-09-10T03:05:56.377Z,54.92
2022-09-10T03:11:00.576Z,55.00
2022-09-10T03:16:04.427Z,54.93
2022-09-10T03:21:12.688Z,55.02
2022-09-10T03:26:16.771Z,55.04
2022-09-10T03:31:21.418Z,55.05
2022-09-10T03:36:29.129Z,55.05
2022-09-10T03:41:33.055Z,55.03
2022-09-10T03:46:37.756Z,55.08
2022-09-10T03:51:41.620Z,55.01
2022-09-10T03:56:45.248Z,55.04
2022-09-10T04:01:49.659Z,55.15
2022-09-10T04:06:53.386Z,55.25
2022-09-10T04:11:57.010Z,55.16
2022-09-10T04:17:00.585Z,55.14
2022-09-10T04:22:04.136Z,55.14
2022-09-10T04:27:07.656Z,55.11
2022-09-10T04:32:11.277Z,55.18
2022-09-10T04:37:19.175Z,54.99
2022-09-10T04:42:23.230Z,55.17
2022-09-10T04:47:26.805Z,55.05
2022-09-10T04:52:30.456Z,55.03
2022-09-10T04:57:33.966Z,55.12
2022-09-10T05:02:37.605Z,54.98
2022-09-10T05:07:41.097Z,55.10
2022-09-10T05:12:44.621Z,55.27
2022-09-10T05:17:48.961Z,55.23
2022-09-10T05:22:52.577Z,55.06
2022-09-10T05:27:56.296Z,55.18
2022-09-10T05:33:00.356Z,55.43
2022-09-10T05:38:03.999Z,55.40
2022-09-10T05:43:07.656Z,55.22
2022-09-10T05:48:10.881Z,55.16
2022-09-10T05:53:14.376Z,55.31
2022-09-10T05:58:18.000Z,55.23
2022-09-10T06:03:21.657Z,55.31
2022-09-10T06:08:25.340Z,55.01
2022-09-10T06:13:28.958Z,55.30
2022-09-10T06:18:32.916Z,55.45
2022-09-10T06:23:36.600Z,55.25
2022-09-10T06:28:40.577Z,55.45
2022-09-10T06:33:44.346Z,55.29
2022-09-10T06:38:49.056Z,55.24
2022-09-10T06:43:52.597Z,55.46
2022-09-10T06:49:00.474Z,55.14
2022-09-10T06:54:04.340Z,55.24
2022-09-10T06:59:08.456Z,55.34
2022-09-10T07:04:12.099Z,55.14
2022-09-10T07:09:16.019Z,55.25
2022-09-10T07:14:19.530Z,55.33
2022-09-10T07:19:23.356Z,55.18
2022-09-10T07:24:26.966Z,55.31
2022-09-10T07:29:30.956Z,55.44
2022-09-10T07:34:34.349Z,55.37
2022-09-10T07:39:37.852Z,55.37
2022-09-10T07:44:41.534Z,55.17
2022-09-10T07:49:45.484Z,55.21
2022-09-10T07:54:49.186Z,55.31
2022-09-10T07:59:53.630Z,55.29
2022-09-10T08:04:57.135Z,55.37
2022-09-10T08:10:00.477Z,55.24
2022-09-10T08:15:04.195Z,55.24
2022-09-10T08:20:09.559Z,55.38
2022-09-10T08:25:13.348Z,55.39
2022-09-10T08:30:17.302Z,55.14
2022-09-10T08:35:21.214Z,55.31
2022-09-10T08:40:25.340Z,55.41
2022-09-10T08:45:30.264Z,55.23
2022-09-10T08:50:37.083Z,55.16
2022-09-10T08:55:42.265Z,55.23
2022-09-10T09:00:49.122Z,55.03
2022-09-10T09:05:55.216Z,55.16
2022-09-10T09:11:04.667Z,55.34
2022-09-10T09:16:15.447Z,55.36
2022-09-10T09:21:24.899Z,55.22
2022-09-10T09:26:34.920Z,55.17
2022-09-10T09:31:41.036Z,55.25
2022-09-10T09:36:48.651Z,55.25
2022-09-10T09:41:58.676Z,55.22
2022-09-10T09:47:02.657Z,55.26
2022-09-10T09:52:14.730Z,55.32
2022-09-10T09:57:20.058Z,55.26
2022-09-10T10:02:24.882Z,55.25
2022-09-10T10:07:31.135Z,55.25
2022-09-10T10:12:37.316Z,55.15
2022-09-10T10:17:41.139Z,55.09
2022-09-10T10:22:45.268Z,55.14
2022-09-10T10:27:51.037Z,55.11
2022-09-10T10:32:56.157Z,55.26
2022-09-10T10:38:06.867Z,55.11
2022-09-10T10:43:18.326Z,54.97
2022-09-10T10:48:29.466Z,54.98
2022-09-10T10:53:50.089Z,54.96
2022-09-10T10:59:00.566Z,54.99
2022-09-10T11:04:23.086Z,54.88
2022-09-10T11:09:30.927Z,54.92
2022-09-10T11:14:38.957Z,54.98
2022-09-10T11:19:47.236Z,55.16
2022-09-10T11:24:51.986Z,55.21
2022-09-10T11:29:57.865Z,55.08
2022-09-10T11:35:06.526Z,54.95
2022-09-10T11:40:16.916Z,55.01
2022-09-10T11:45:23.280Z,54.98
2022-09-10T11:50:34.519Z,55.03
2022-09-10T11:55:44.666Z,54.86
2022-09-10T12:00:52.594Z,55.20
2022-09-10T12:06:02.770Z,54.95
2022-09-10T12:11:17.021Z,54.90
2022-09-10T12:16:26.777Z,54.92
2022-09-10T12:21:32.959Z,54.88
2022-09-10T12:26:43.157Z,54.95
2022-09-10T12:32:04.681Z,55.10
2022-09-10T12:37:18.816Z,55.11
2022-09-10T12:42:34.836Z,55.05
2022-09-10T12:47:52.036Z,55.11
2022-09-10T12:53:03.786Z,55.00
2022-09-10T12:58:12.321Z,54.91
2022-09-10T13:03:17.376Z,54.89
2022-09-10T13:08:22.716Z,54.94
2022-09-10T13:13:33.319Z,55.20
2022-09-10T13:18:37.727Z,54.95
2022-09-10T13:23:47.996Z,54.61
2022-09-10T13:29:01.221Z,54.81
2022-09-10T13:34:31.755Z,54.66
2022-09-10T13:39:47.138Z,54.59
2022-09-10T13:45:07.516Z,54.51
2022-09-10T13:50:14.076Z,54.61
2022-09-10T13:55:20.220Z,54.52
2022-09-10T14:00:25.258Z,54.66
2022-09-10T14:05:31.510Z,54.59
2022-09-10T14:10:38.507Z,54.60
2022-09-10T14:15:42.226Z,54.45
2022-09-10T14:20:46.237Z,54.42
2022-09-10T14:26:08.606Z,54.37
2022-09-10T14:31:23.062Z,54.37
2022-09-10T14:36:33.328Z,54.20
2022-09-10T14:41:37.187Z,54.26
2022-09-10T14:46:48.847Z,54.20
2022-09-10T14:51:53.806Z,54.13
2022-09-10T14:56:58.370Z,54.24
2022-09-10T15:02:02.349Z,53.94
2022-09-10T15:07:06.126Z,54.09
2022-09-10T15:12:13.427Z,54.26
2022-09-10T15:17:17.967Z,54.11
2022-09-10T15:22:23.432Z,54.32
2022-09-10T15:27:27.076Z,54.15
2022-09-10T15:32:30.869Z,54.13
2022-09-10T15:37:34.490Z,54.09
2022-09-10T15:42:38.108Z,54.08
2022-09-10T15:47:42.855Z,54.29
2022-09-10T15:52:46.468Z,54.27
2022-09-10T15:57:50.187Z,54.32
2022-09-10T16:02:53.953Z,54.31
2022-09-10T16:07:57.617Z,54.65
2022-09-10T16:13:01.140Z,55.43
2022-09-10T16:18:05.057Z,54.64
2022-09-10T16:23:09.200Z,54.73
2022-09-10T16:28:12.707Z,54.78
2022-09-10T16:33:16.536Z,55.16
2022-09-10T16:38:20.359Z,55.13
2022-09-10T16:43:24.061Z,55.53
2022-09-10T16:48:27.588Z,55.55
2022-09-10T16:53:31.001Z,55.65
2022-09-10T16:58:36.092Z,55.55
2022-09-10T17:03:41.446Z,55.44
2022-09-10T17:08:45.335Z,55.68
2022-09-10T17:13:50.599Z,55.45
2022-09-10T17:18:58.090Z,55.67
2022-09-10T17:24:02.748Z,55.50
2022-09-10T17:29:07.168Z,55.41
2022-09-10T17:34:12.798Z,55.57
2022-09-10T17:39:16.971Z,55.67
2022-09-10T17:44:20.504Z,55.57
2022-09-10T17:49:24.308Z,55.65
2022-09-10T17:54:27.819Z,55.60
2022-09-10T17:59:31.862Z,55.55
2022-09-10T18:04:35.408Z,55.66
2022-09-10T18:09:39.299Z,55.66
2022-09-10T18:14:43.018Z,55.56
2022-09-10T18:19:46.739Z,55.79
2022-09-10T18:24:50.462Z,55.48
2022-09-10T18:29:54.279Z,55.74
2022-09-10T18:34:57.791Z,55.71
2022-09-10T18:40:01.771Z,55.72
2022-09-10T18:45:06.572Z,55.61
2022-09-10T18:50:10.489Z,55.80
2022-09-10T18:55:15.737Z,55.65
2022-09-10T19:00:19.561Z,55.70
2022-09-10T19:05:23.077Z,55.46
2022-09-10T19:10:26.601Z,55.67
2022-09-10T19:15:30.717Z,55.61
2022-09-10T19:20:36.418Z,55.60
2022-09-10T19:25:40.008Z,55.75
2022-09-10T19:30:43.520Z,55.58
2022-09-10T19:35:47.037Z,55.83
2022-09-10T19:40:50.769Z,55.63
2022-09-10T19:45:55.813Z,55.72
2022-09-10T19:50:59.566Z,55.79
2022-09-10T19:56:04.520Z,55.57
2022-09-10T20:01:09.063Z,55.65
2022-09-10T20:06:13.459Z,55.71
2022-09-10T20:11:18.305Z,55.79
2022-09-10T20:16:21.982Z,55.71
2022-09-10T20:21:26.570Z,55.56
2022-09-10T20:26:31.176Z,55.70
2022-09-10T20:31:35.950Z,55.92
2022-09-10T20:36:41.779Z,55.90
2022-09-10T20:41:45.946Z,55.69
2022-09-10T20:46:49.667Z,55.84
2022-09-10T20:51:53.586Z,55.87
2022-09-10T20:56:57.111Z,55.89
2022-09-10T21:02:00.702Z,55.82
2022-09-10T21:07:04.335Z,55.82
2022-09-10T21:12:10.516Z,55.97
2022-09-10T21:17:14.047Z,55.71
2022-09-10T21:22:17.722Z,55.87
2022-09-10T21:27:21.375Z,55.96
2022-09-10T21:32:24.987Z,55.90
2022-09-10T21:37:28.509Z,56.05
2022-09-10T21:42:32.426Z,55.78
2022-09-10T21:47:35.938Z,55.96
2022-09-10T21:52:40.446Z,56.01
2022-09-10T21:57:44.000Z,55.92
2022-09-10T22:02:49.123Z,55.79
2022-09-10T22:07:52.876Z,55.79
2022-09-10T22:12:56.496Z,56.06
2022-09-10T22:18:00.415Z,55.98
2022-09-10T22:23:04.295Z,55.96
2022-09-10T22:28:07.857Z,56.03
2022-09-10T22:33:11.365Z,55.96
2022-09-10T22:38:17.957Z,56.05
2022-09-10T22:43:24.587Z,55.88
2022-09-10T22:48:28.196Z,55.93
2022-09-10T22:53:31.780Z,56.08
2022-09-10T22:58:35.806Z,55.97
2022-09-10T23:03:39.971Z,55.83
2022-09-10T23:08:44.616Z,55.93
2022-09-10T23:13:50.247Z,56.04
2022-09-10T23:18:54.508Z,55.88
2022-09-10T23:23:59.027Z,55.91
2022-09-10T23:29:04.266Z,56.00
2022-09-10T23:34:09.627Z,55.91
2022-09-10T23:39:13.835Z,56.16
2022-09-10T23:44:17.777Z,55.94
2022-09-10T23:49:22.426Z,56.09
2022-09-10T23:54:26.047Z,55.91
2022-09-10T23:59:29.770Z,55.98
